createdAt,value
2023-01-25T00:01:42.617Z,102181.09
2023-01-25T00:04:09.208Z,102172.88
2023-01-25T00:06:35.573Z,102168.84
2023-01-25T00:09:02.306Z,102167.75
2023-01-25T00:11:28.705Z,102168.94
2023-01-25T00:13:55.410Z,102157.75
2023-01-25T00:16:22.537Z,102161.88
2023-01-25T00:18:49.522Z,102166.41
2023-01-25T00:21:19.947Z,102159.53
2023-01-25T00:23:46.446Z,102151.31
2023-01-25T00:26:12.862Z,102157.69
2023-01-25T00:28:39.496Z,102155.38
2023-01-25T00:31:07.640Z,102153.44
2023-01-25T00:33:40.079Z,102152.13
2023-01-25T00:36:31.618Z,102153.09
2023-01-25T00:38:58.560Z,102146.94
2023-01-25T00:41:25.283Z,102149.28
2023-01-25T00:43:51.746Z,102140.22
2023-01-25T00:46:18.852Z,102134.28
2023-01-25T00:48:45.683Z,102136.44
2023-01-25T00:51:12.179Z,102131.47
2023-01-25T00:53:38.643Z,102130.84
2023-01-25T00:56:05.243Z,102135.97
2023-01-25T00:58:31.652Z,102135.63
2023-01-25T01:00:58.172Z,102130.19
2023-01-25T01:03:24.918Z,102133.66
2023-01-25T01:06:02.813Z,102131.91
2023-01-25T01:08:29.594Z,102126.50
2023-01-25T01:11:04.835Z,102128.63
2023-01-25T01:13:32.205Z,102124.97
2023-01-25T01:16:02.746Z,102128.03
2023-01-25T01:18:34.485Z,102128.88
2023-01-25T01:21:00.891Z,102129.22
2023-01-25T01:23:29.126Z,102125.91
2023-01-25T01:25:55.596Z,102124.16
2023-01-25T01:28:22.170Z,102123.09
2023-01-25T01:30:48.631Z,102122.97
2023-01-25T01:33:15.025Z,102127.66
2023-01-25T01:35:41.541Z,102122.72
2023-01-25T01:38:07.987Z,102125.34
2023-01-25T01:40:34.358Z,102119.41
2023-01-25T01:43:06.353Z,102119.25
2023-01-25T01:46:03.149Z,102113.44
2023-01-25T01:48:44.382Z,102120.75
2023-01-25T01:51:23.360Z,102125.25
2023-01-25T01:53:58.007Z,102113.38
2023-01-25T01:56:56.510Z,102112.78
2023-01-25T01:59:27.142Z,102104.44
2023-01-25T02:01:54.542Z,102106.59
2023-01-25T02:04:24.016Z,102111.00
2023-01-25T02:07:18.347Z,102101.44
2023-01-25T02:09:45.473Z,102103.81
2023-01-25T02:12:13.453Z,102096.72
2023-01-25T02:14:48.814Z,102096.81
2023-01-25T02:17:15.526Z,102091.25
2023-01-25T02:19:57.225Z,102095.91
2023-01-25T02:22:32.354Z,102092.06
2023-01-25T02:25:06.093Z,102101.06
2023-01-25T02:27:38.688Z,102088.75
2023-01-25T02:30:05.798Z,102089.03
2023-01-25T02:32:33.177Z,102097.81
2023-01-25T02:34:59.542Z,102090.47
2023-01-25T02:37:26.431Z,102091.22
2023-01-25T02:39:53.308Z,102084.38
2023-01-25T02:42:19.710Z,102090.22
2023-01-25T02:44:47.231Z,102091.81
2023-01-25T02:47:13.569Z,102087.81
2023-01-25T02:49:40.064Z,102086.56
2023-01-25T02:52:06.427Z,102087.97
2023-01-25T02:54:33.010Z,102078.38
2023-01-25T02:56:59.435Z,102078.69
2023-01-25T02:59:25.848Z,102090.66
2023-01-25T03:01:52.349Z,102080.28
2023-01-25T03:04:18.878Z,102084.03
2023-01-25T03:06:45.412Z,102085.00
2023-01-25T03:09:12.144Z,102090.53
2023-01-25T03:11:38.502Z,102086.88
2023-01-25T03:14:05.020Z,102086.22
2023-01-25T03:16:32.324Z,102091.56
2023-01-25T03:18:58.730Z,102078.19
2023-01-25T03:21:25.590Z,102088.28
2023-01-25T03:24:01.223Z,102080.69
2023-01-25T03:26:28.703Z,102082.69
2023-01-25T03:28:55.308Z,102081.13
2023-01-25T03:31:21.864Z,102075.25
2023-01-25T03:33:48.591Z,102071.88
2023-01-25T03:36:15.059Z,102071.31
2023-01-25T03:38:41.434Z,102060.78
2023-01-25T03:41:09.058Z,102058.03
2023-01-25T03:43:35.399Z,102062.25
2023-01-25T03:46:02.160Z,102061.13
2023-01-25T03:48:29.015Z,102059.81
2023-01-25T03:50:57.899Z,102064.97
2023-01-25T03:53:32.760Z,102062.84
2023-01-25T03:56:02.353Z,102067.56
2023-01-25T03:58:30.048Z,102073.03
2023-01-25T04:00:58.744Z,102069.44
2023-01-25T04:03:25.742Z,102063.53
2023-01-25T04:05:53.066Z,102065.59
2023-01-25T04:08:20.110Z,102059.09
2023-01-25T04:10:57.224Z,102056.97
2023-01-25T04:13:24.864Z,102049.94
2023-01-25T04:15:51.553Z,102043.19
2023-01-25T04:18:19.051Z,102051.91
2023-01-25T04:20:45.737Z,102045.44
2023-01-25T04:23:12.971Z,102047.28
2023-01-25T04:25:39.472Z,102046.47
2023-01-25T04:28:06.052Z,102049.50
2023-01-25T04:30:32.498Z,102044.53
2023-01-25T04:33:03.758Z,102046.44
2023-01-25T04:35:30.291Z,102049.53
2023-01-25T04:37:57.904Z,102043.31
2023-01-25T04:40:24.365Z,102039.88
2023-01-25T04:42:50.745Z,102038.22
2023-01-25T04:45:17.287Z,102032.84
2023-01-25T04:47:43.683Z,102040.03
2023-01-25T04:50:10.937Z,102035.94
2023-01-25T04:52:37.365Z,102036.28
2023-01-25T04:55:03.926Z,102040.13
2023-01-25T04:57:30.373Z,102032.94
2023-01-25T04:59:56.779Z,102028.09
2023-01-25T05:02:23.218Z,102025.00
2023-01-25T05:04:49.627Z,102019.53
2023-01-25T05:07:16.021Z,102020.72
2023-01-25T05:09:42.373Z,102027.13
2023-01-25T05:12:11.839Z,102019.25
2023-01-25T05:14:38.953Z,102019.16
2023-01-25T05:17:09.225Z,102017.25
2023-01-25T05:19:35.974Z,102011.38
2023-01-25T05:22:07.188Z,102007.94
2023-01-25T05:24:35.511Z,102002.69
2023-01-25T05:27:05.712Z,101998.28
2023-01-25T05:29:40.489Z,102006.19
2023-01-25T05:32:08.198Z,101992.47
2023-01-25T05:34:35.408Z,101993.88
2023-01-25T05:37:03.193Z,101997.25
2023-01-25T05:39:29.829Z,101991.88
2023-01-25T05:41:56.506Z,101988.00
2023-01-25T05:44:23.941Z,101987.41
2023-01-25T05:46:50.662Z,101987.94
2023-01-25T05:49:18.221Z,101984.94
2023-01-25T05:51:45.484Z,101984.44
2023-01-25T05:54:14.333Z,101991.97
2023-01-25T05:56:41.129Z,101980.75
2023-01-25T05:59:07.625Z,101987.91
2023-01-25T06:01:34.017Z,101985.19
2023-01-25T06:04:00.510Z,101972.31
2023-01-25T06:06:26.919Z,101986.47
2023-01-25T06:08:53.426Z,101975.66
2023-01-25T06:11:22.431Z,101979.78
2023-01-25T06:13:49.808Z,101975.13
2023-01-25T06:16:18.105Z,101971.59
2023-01-25T06:18:44.981Z,101977.19
2023-01-25T06:21:11.640Z,101977.63
2023-01-25T06:23:38.219Z,101974.56
2023-01-25T06:26:07.881Z,101971.75
2023-01-25T06:28:35.559Z,101972.91
2023-01-25T06:31:16.189Z,101974.56
2023-01-25T06:33:43.788Z,101976.22
2023-01-25T06:36:16.094Z,101979.66
2023-01-25T06:38:42.706Z,101983.28
2023-01-25T06:41:12.143Z,101984.78
2023-01-25T06:43:39.217Z,101982.97
2023-01-25T06:46:08.079Z,101982.06
2023-01-25T06:48:35.441Z,101967.69
2023-01-25T06:51:05.090Z,101975.97
2023-01-25T06:53:33.807Z,101969.63
2023-01-25T06:56:02.686Z,101965.91
2023-01-25T06:58:30.036Z,101968.34
2023-01-25T07:01:02.000Z,101969.41
2023-01-25T07:03:29.525Z,101982.06
2023-01-25T07:06:04.065Z,101972.19
2023-01-25T07:08:30.872Z,101976.84
2023-01-25T07:10:59.291Z,101975.41
2023-01-25T07:13:26.711Z,101983.28
2023-01-25T07:15:57.861Z,101983.53
2023-01-25T07:18:25.891Z,101976.13
2023-01-25T07:20:52.545Z,101971.44
2023-01-25T07:23:20.040Z,101978.50
2023-01-25T07:25:50.547Z,101972.41
2023-01-25T07:28:17.448Z,101974.41
2023-01-25T07:30:43.922Z,101974.69
2023-01-25T07:33:10.928Z,101981.09
2023-01-25T07:35:37.447Z,101979.03
2023-01-25T07:38:04.655Z,101971.16
2023-01-25T07:40:31.097Z,101969.56
2023-01-25T07:42:58.483Z,101970.25
2023-01-25T07:45:30.465Z,101980.28
2023-01-25T07:48:00.455Z,101975.72
2023-01-25T07:50:28.173Z,101977.16
2023-01-25T07:52:55.163Z,101976.81
2023-01-25T07:55:22.073Z,101971.16
2023-01-25T07:57:48.679Z,101976.81
2023-01-25T08:00:15.419Z,101977.94
2023-01-25T08:02:41.856Z,101978.41
2023-01-25T08:05:09.110Z,101970.22
2023-01-25T08:07:35.724Z,101976.47
2023-01-25T08:10:02.118Z,101972.03
2023-01-25T08:12:28.790Z,101975.09
2023-01-25T08:14:55.228Z,101977.09
2023-01-25T08:17:21.561Z,101972.00
2023-01-25T08:19:47.921Z,101972.28
2023-01-25T08:22:14.385Z,101975.59
2023-01-25T08:24:40.972Z,101971.16
2023-01-25T08:27:07.444Z,101970.72
2023-01-25T08:29:33.856Z,101965.34
2023-01-25T08:32:00.331Z,101961.25
2023-01-25T08:34:26.779Z,101969.38
2023-01-25T08:36:53.450Z,101965.81
2023-01-25T08:39:20.015Z,101968.22
2023-01-25T08:41:46.432Z,101965.63
2023-01-25T08:44:13.112Z,101956.44
2023-01-25T08:46:39.468Z,101966.53
2023-01-25T08:49:06.062Z,101963.19
2023-01-25T08:51:32.750Z,101964.31
2023-01-25T08:54:07.374Z,101951.53
2023-01-25T08:56:36.798Z,101953.19
2023-01-25T08:59:03.400Z,101953.69
2023-01-25T09:01:29.773Z,101950.56
2023-01-25T09:03:56.260Z,101951.69
2023-01-25T09:06:22.714Z,101954.78
2023-01-25T09:08:49.221Z,101941.59
2023-01-25T09:11:21.059Z,101949.63
2023-01-25T09:13:48.818Z,101941.34
2023-01-25T09:16:18.519Z,101946.84
2023-01-25T09:18:45.574Z,101950.03
2023-01-25T09:21:14.394Z,101946.16
2023-01-25T09:23:50.759Z,101945.19
2023-01-25T09:26:24.879Z,101949.94
2023-01-25T09:28:52.572Z,101939.09
2023-01-25T09:31:22.782Z,101943.31
2023-01-25T09:33:51.881Z,101940.25
2023-01-25T09:36:19.172Z,101932.97
2023-01-25T09:38:45.930Z,101935.00
2023-01-25T09:41:31.265Z,101929.38
2023-01-25T09:44:22.570Z,101935.31
2023-01-25T09:46:56.468Z,101931.91
2023-01-25T09:49:47.827Z,101933.47
2023-01-25T09:52:49.009Z,101929.31
2023-01-25T09:55:18.973Z,101927.59
2023-01-25T09:57:48.118Z,101923.66
2023-01-25T10:00:17.909Z,101926.19
2023-01-25T10:03:05.990Z,101920.53
2023-01-25T10:05:42.630Z,101927.38
2023-01-25T10:08:31.757Z,101921.75
2023-01-25T10:11:04.718Z,101921.50
2023-01-25T10:13:31.968Z,101923.16
2023-01-25T10:16:24.571Z,101922.63
2023-01-25T10:19:01.143Z,101922.41
2023-01-25T10:21:37.295Z,101918.59
2023-01-25T10:24:21.819Z,101914.75
2023-01-25T10:26:56.644Z,101914.69
2023-01-25T10:29:27.786Z,101906.72
2023-01-25T10:32:11.759Z,101896.91
2023-01-25T10:34:55.884Z,101898.94
2023-01-25T10:37:27.645Z,101899.53
2023-01-25T10:40:15.025Z,101897.59
2023-01-25T10:42:46.246Z,101888.09
2023-01-25T10:45:14.985Z,101888.84
2023-01-25T10:47:48.497Z,101872.44
2023-01-25T10:50:42.849Z,101877.44
2023-01-25T10:53:29.697Z,101866.09
2023-01-25T10:56:03.288Z,101862.94
2023-01-25T10:58:38.905Z,101864.91
2023-01-25T11:01:08.911Z,101853.09
2023-01-25T11:03:44.762Z,101847.31
2023-01-25T11:06:11.151Z,101844.25
2023-01-25T11:08:40.033Z,101837.88
2023-01-25T11:11:23.281Z,101836.75
2023-01-25T11:13:49.870Z,101826.22
2023-01-25T11:16:20.219Z,101826.22
2023-01-25T11:18:52.809Z,101821.97
2023-01-25T11:21:28.195Z,101818.09
2023-01-25T11:24:00.375Z,101813.09
2023-01-25T11:26:27.295Z,101810.66
2023-01-25T11:29:12.262Z,101816.59
2023-01-25T11:31:45.318Z,101800.56
2023-01-25T11:34:14.815Z,101805.69
2023-01-25T11:36:48.905Z,101801.09
2023-01-25T11:39:40.270Z,101789.50
2023-01-25T11:42:15.787Z,101784.06
2023-01-25T11:45:01.212Z,101790.81
2023-01-25T11:47:54.867Z,101783.59
2023-01-25T11:50:39.035Z,101774.22
2023-01-25T11:53:29.953Z,101771.13
2023-01-25T11:56:22.229Z,101763.09
2023-01-25T11:58:58.690Z,101758.59
2023-01-25T12:01:46.563Z,101760.53
2023-01-25T12:04:39.403Z,101761.34
2023-01-25T12:07:13.547Z,101747.34
2023-01-25T12:10:15.029Z,101746.25
2023-01-25T12:12:41.924Z,101743.19
2023-01-25T12:15:14.347Z,101734.59
2023-01-25T12:18:01.478Z,101733.97
2023-01-25T12:20:40.471Z,101736.28
2023-01-25T12:23:37.925Z,101722.69
2023-01-25T12:26:30.489Z,101721.00
2023-01-25T12:29:12.083Z,101710.31
2023-01-25T12:31:54.887Z,101698.13
2023-01-25T12:34:31.158Z,101700.31
2023-01-25T12:37:03.257Z,101687.41
2023-01-25T12:39:37.707Z,101689.63
2023-01-25T12:42:16.982Z,101681.44
2023-01-25T12:44:58.314Z,101669.25
2023-01-25T12:47:37.999Z,101671.59
2023-01-25T12:50:15.865Z,101666.91
2023-01-25T12:52:51.006Z,101659.50
2023-01-25T12:55:18.480Z,101661.25
2023-01-25T12:58:11.450Z,101652.38
2023-01-25T13:00:53.036Z,101655.31
2023-01-25T13:03:42.640Z,101649.47
2023-01-25T13:06:26.075Z,101646.16
2023-01-25T13:09:07.985Z,101636.25
2023-01-25T13:11:43.170Z,101631.69
2023-01-25T13:14:15.412Z,101630.00
2023-01-25T13:16:50.258Z,101626.84
2023-01-25T13:19:19.509Z,101614.41
2023-01-25T13:21:48.040Z,101609.72
2023-01-25T13:24:21.060Z,101597.31
2023-01-25T13:26:50.809Z,101595.44
2023-01-25T13:29:32.326Z,101595.47
2023-01-25T13:31:59.762Z,101584.81
2023-01-25T13:34:39.158Z,101590.22
2023-01-25T13:37:25.238Z,101591.94
2023-01-25T13:39:56.900Z,101590.00
2023-01-25T13:42:25.411Z,101576.63
2023-01-25T13:45:04.248Z,101588.63
2023-01-25T13:47:38.008Z,101583.00
2023-01-25T13:50:25.707Z,101586.28
2023-01-25T13:53:03.897Z,101585.59
2023-01-25T13:55:40.108Z,101582.00
2023-01-25T13:58:21.585Z,101571.84
2023-01-25T14:01:00.071Z,101567.44
2023-01-25T14:03:30.659Z,101566.84
2023-01-25T14:06:00.534Z,101563.56
2023-01-25T14:08:28.107Z,101565.75
2023-01-25T14:10:55.314Z,101561.78
2023-01-25T14:13:21.868Z,101559.56
2023-01-25T14:16:04.230Z,101554.56
2023-01-25T14:18:33.281Z,101546.13
2023-01-25T14:21:19.056Z,101541.59
2023-01-25T14:23:45.806Z,101544.03
2023-01-25T14:26:28.299Z,101546.91
2023-01-25T14:29:01.440Z,101541.69
2023-01-25T14:31:35.406Z,101537.66
2023-01-25T14:34:04.227Z,101531.41
2023-01-25T14:36:34.205Z,101524.19
2023-01-25T14:39:02.064Z,101519.53
2023-01-25T14:41:37.101Z,101513.94
2023-01-25T14:44:10.531Z,101510.25
2023-01-25T14:46:38.378Z,101503.63
2023-01-25T14:49:26.860Z,101487.00
2023-01-25T14:52:03.296Z,101490.78
2023-01-25T14:54:34.245Z,101486.53
2023-01-25T14:57:06.356Z,101474.94
2023-01-25T14:59:37.664Z,101490.13
2023-01-25T15:02:25.167Z,101484.50
2023-01-25T15:05:02.804Z,101483.09
2023-01-25T15:07:50.575Z,101477.91
2023-01-25T15:10:17.031Z,101465.72
2023-01-25T15:13:21.316Z,101469.22
2023-01-25T15:15:59.645Z,101467.97
2023-01-25T15:18:44.526Z,101466.63
2023-01-25T15:21:13.798Z,101467.47
2023-01-25T15:23:42.258Z,101468.28
2023-01-25T15:26:19.404Z,101462.72
2023-01-25T15:28:46.294Z,101463.44
2023-01-25T15:31:36.974Z,101460.47
2023-01-25T15:34:04.496Z,101455.50
2023-01-25T15:36:32.801Z,101450.38
2023-01-25T15:38:59.920Z,101447.25
2023-01-25T15:41:26.309Z,101449.59
2023-01-25T15:43:52.770Z,101441.53
2023-01-25T15:46:26.159Z,101454.78
2023-01-25T15:48:53.414Z,101452.34
2023-01-25T15:51:21.032Z,101453.19
2023-01-25T15:53:47.783Z,101441.63
2023-01-25T15:56:18.168Z,101441.13
2023-01-25T15:58:49.282Z,101434.50
2023-01-25T16:01:15.903Z,101437.56
2023-01-25T16:03:42.496Z,101438.53
2023-01-25T16:06:28.367Z,101432.88
2023-01-25T16:08:54.759Z,101432.94
2023-01-25T16:11:21.131Z,101433.16
2023-01-25T16:13:47.958Z,101427.47
2023-01-25T16:16:20.938Z,101434.19
2023-01-25T16:18:47.797Z,101433.75
2023-01-25T16:21:14.750Z,101435.72
2023-01-25T16:23:42.648Z,101429.91
2023-01-25T16:26:24.485Z,101437.84
2023-01-25T16:28:51.162Z,101437.13
2023-01-25T16:31:31.250Z,101432.28
2023-01-25T16:33:58.963Z,101430.78
2023-01-25T16:36:25.405Z,101428.81
2023-01-25T16:38:52.086Z,101426.94
2023-01-25T16:41:18.764Z,101434.38
2023-01-25T16:43:47.980Z,101435.31
2023-01-25T16:46:16.229Z,101430.16
2023-01-25T16:48:43.389Z,101428.53
2023-01-25T16:51:16.973Z,101428.56
2023-01-25T16:53:43.879Z,101425.91
2023-01-25T16:56:21.323Z,101428.94
2023-01-25T16:58:48.950Z,101428.78
2023-01-25T17:01:17.755Z,101427.16
2023-01-25T17:03:44.443Z,101423.16
2023-01-25T17:06:18.910Z,101420.22
2023-01-25T17:08:48.987Z,101420.91
2023-01-25T17:11:18.600Z,101413.06
2023-01-25T17:13:50.220Z,101415.09
2023-01-25T17:16:17.987Z,101413.81
2023-01-25T17:18:44.769Z,101406.28
2023-01-25T17:21:14.474Z,101398.72
2023-01-25T17:23:41.873Z,101398.25
2023-01-25T17:26:11.321Z,101405.44
2023-01-25T17:28:37.715Z,101406.88
2023-01-25T17:31:04.752Z,101397.84
2023-01-25T17:33:32.083Z,101403.44
2023-01-25T17:36:02.702Z,101390.78
2023-01-25T17:38:29.250Z,101395.91
2023-01-25T17:40:55.710Z,101390.41
2023-01-25T17:43:22.349Z,101384.53
2023-01-25T17:45:48.738Z,101390.47
2023-01-25T17:48:15.164Z,101391.19
2023-01-25T17:50:41.511Z,101388.69
2023-01-25T17:53:08.037Z,101379.75
2023-01-25T17:55:36.206Z,101382.38
2023-01-25T17:58:03.785Z,101370.75
2023-01-25T18:00:30.276Z,101375.84
2023-01-25T18:02:58.376Z,101370.00
2023-01-25T18:05:27.182Z,101358.47
2023-01-25T18:07:53.778Z,101355.41
2023-01-25T18:10:20.134Z,101356.50
2023-01-25T18:13:03.609Z,101351.28
2023-01-25T18:15:30.805Z,101348.28
2023-01-25T18:17:58.312Z,101358.19
2023-01-25T18:20:24.711Z,101360.81
2023-01-25T18:22:51.120Z,101353.03
2023-01-25T18:25:35.520Z,101341.88
2023-01-25T18:28:02.222Z,101342.81
2023-01-25T18:30:50.356Z,101341.38
2023-01-25T18:33:16.801Z,101336.06
2023-01-25T18:35:43.894Z,101335.09
2023-01-25T18:38:10.618Z,101332.44
2023-01-25T18:40:37.914Z,101336.34
2023-01-25T18:43:04.301Z,101327.44
2023-01-25T18:45:30.626Z,101330.00
2023-01-25T18:47:57.025Z,101317.81
2023-01-25T18:50:23.783Z,101325.69
2023-01-25T18:52:51.640Z,101314.59
2023-01-25T18:55:18.152Z,101320.19
2023-01-25T18:57:44.545Z,101306.72
2023-01-25T19:00:14.582Z,101302.03
2023-01-25T19:02:40.977Z,101295.06
2023-01-25T19:05:08.405Z,101302.28
2023-01-25T19:07:36.493Z,101298.03
2023-01-25T19:10:03.731Z,101306.00
2023-01-25T19:12:30.326Z,101301.34
2023-01-25T19:14:58.003Z,101297.84
2023-01-25T19:17:24.394Z,101295.28
2023-01-25T19:19:50.810Z,101292.97
2023-01-25T19:22:17.224Z,101289.03
2023-01-25T19:24:43.658Z,101280.75
2023-01-25T19:27:10.085Z,101284.94
2023-01-25T19:29:36.797Z,101276.34
2023-01-25T19:32:03.146Z,101278.34
2023-01-25T19:34:29.547Z,101279.84
2023-01-25T19:36:57.239Z,101280.75
2023-01-25T19:39:23.663Z,101279.13
2023-01-25T19:41:51.931Z,101276.38
2023-01-25T19:44:18.363Z,101274.66
2023-01-25T19:46:44.845Z,101274.06
2023-01-25T19:49:13.231Z,101267.09
2023-01-25T19:51:42.579Z,101261.63
2023-01-25T19:54:16.460Z,101258.19
2023-01-25T19:56:45.492Z,101252.50
2023-01-25T19:59:14.869Z,101252.97
2023-01-25T20:01:43.845Z,101250.28
2023-01-25T20:04:12.418Z,101249.09
2023-01-25T20:06:38.782Z,101247.31
2023-01-25T20:09:05.209Z,101249.81
2023-01-25T20:11:33.121Z,101245.66
2023-01-25T20:14:03.097Z,101245.28
2023-01-25T20:16:32.145Z,101241.72
2023-01-25T20:18:59.620Z,101244.44
2023-01-25T20:21:27.758Z,101235.28
2023-01-25T20:23:58.112Z,101236.28
2023-01-25T20:26:27.278Z,101246.00
2023-01-25T20:28:55.935Z,101244.13
2023-01-25T20:31:23.952Z,101243.13
2023-01-25T20:33:52.841Z,101250.72
2023-01-25T20:36:19.323Z,101243.72
2023-01-25T20:38:46.271Z,101243.97
2023-01-25T20:41:15.518Z,101243.75
2023-01-25T20:43:47.966Z,101240.06
2023-01-25T20:46:15.280Z,101235.56
2023-01-25T20:48:41.967Z,101234.31
2023-01-25T20:51:12.699Z,101231.94
2023-01-25T20:53:39.879Z,101232.56
2023-01-25T20:56:07.838Z,101231.25
2023-01-25T20:58:34.191Z,101229.31
2023-01-25T21:01:01.258Z,101237.81
2023-01-25T21:03:29.970Z,101219.72
2023-01-25T21:05:58.519Z,101208.22
2023-01-25T21:08:25.953Z,101220.34
2023-01-25T21:10:57.910Z,101223.56
2023-01-25T21:13:25.435Z,101218.66
2023-01-25T21:16:05.358Z,101214.34
2023-01-25T21:18:39.816Z,101205.22
2023-01-25T21:21:09.037Z,101199.84
2023-01-25T21:23:37.411Z,101195.91
2023-01-25T21:26:05.602Z,101201.88
2023-01-25T21:28:33.393Z,101202.06
2023-01-25T21:31:08.094Z,101200.53
2023-01-25T21:33:34.697Z,101195.13
2023-01-25T21:36:01.570Z,101190.59
2023-01-25T21:38:28.023Z,101189.84
2023-01-25T21:41:00.965Z,101184.41
2023-01-25T21:43:27.461Z,101184.22
2023-01-25T21:46:12.515Z,101179.41
2023-01-25T21:48:57.195Z,101179.97
2023-01-25T21:51:35.486Z,101172.94
2023-01-25T21:54:02.030Z,101171.47
2023-01-25T21:56:29.266Z,101167.88
2023-01-25T21:58:55.639Z,101164.78
2023-01-25T22:01:22.918Z,101168.41
2023-01-25T22:03:50.696Z,101156.44
2023-01-25T22:06:18.567Z,101151.06
2023-01-25T22:08:45.530Z,101144.75
2023-01-25T22:11:12.564Z,101140.81
2023-01-25T22:13:40.057Z,101136.75
2023-01-25T22:16:08.613Z,101138.53
2023-01-25T22:18:40.095Z,101137.09
2023-01-25T22:21:14.948Z,101122.81
2023-01-25T22:23:41.438Z,101116.84
2023-01-25T22:26:10.522Z,101110.84
2023-01-25T22:28:48.861Z,101120.41
2023-01-25T22:31:26.885Z,101117.75
2023-01-25T22:33:54.511Z,101124.91
2023-01-25T22:36:23.445Z,101122.97
2023-01-25T22:38:50.519Z,101099.34
2023-01-25T22:41:25.779Z,101108.22
2023-01-25T22:43:53.030Z,101105.50
2023-01-25T22:46:22.219Z,101104.09
2023-01-25T22:48:48.670Z,101103.81
2023-01-25T22:51:17.654Z,101108.06
2023-01-25T22:53:44.421Z,101095.53
2023-01-25T22:56:19.054Z,101086.34
2023-01-25T22:58:47.293Z,101087.97
2023-01-25T23:01:16.017Z,101084.88
2023-01-25T23:03:42.631Z,101090.13
2023-01-25T23:06:13.197Z,101090.28
2023-01-25T23:08:40.187Z,101091.50
2023-01-25T23:11:14.847Z,101084.75
2023-01-25T23:13:41.897Z,101081.25
2023-01-25T23:16:09.858Z,101074.88
2023-01-25T23:18:51.643Z,101076.00
2023-01-25T23:21:21.248Z,101075.03
2023-01-25T23:23:48.357Z,101083.28
2023-01-25T23:26:16.301Z,101074.38
2023-01-25T23:28:42.769Z,101072.13
2023-01-25T23:31:17.944Z,101063.53
2023-01-25T23:33:50.203Z,101066.53
2023-01-25T23:36:19.439Z,101053.19
2023-01-25T23:38:46.543Z,101056.81
2023-01-25T23:41:14.425Z,101050.38
2023-01-25T23:43:41.693Z,101044.44
2023-01-25T23:46:08.723Z,101032.94
2023-01-25T23:48:35.678Z,101032.16
2023-01-25T23:51:02.598Z,101030.91
2023-01-25T23:53:31.468Z,101031.97
2023-01-25T23:56:00.936Z,101028.41
2023-01-25T23:58:28.829Z,101018.63
